sensor_id;sensor_type;location;lat;lon;timestamp;P1;durP1;ratioP1;P2;durP2;ratioP2
58015;SDS011;43809;52.110;20.964;2023-11-19T00:01:03;32.92;;;15.45;;
58015;SDS011;43809;52.110;20.964;2023-11-19T00:03:06;28.95;;;14.82;;
58015;SDS011;43809;52.110;20.964;2023-11-19T00:05:06;28.80;;;14.70;;
58015;SDS011;43809;52.110;20.964;2023-11-19T00:07:11;24.95;;;12.35;;
58015;SDS011;43809;52.110;20.964;2023-11-19T00:09:14;21.25;;;10.52;;
58015;SDS011;43809;52.110;20.964;2023-11-19T00:11:17;19.10;;;9.18;;
58015;SDS011;43809;52.110;20.964;2023-11-19T00:13:18;17.90;;;8.85;;
58015;SDS011;43809;52.110;20.964;2023-11-19T00:15:18;15.60;;;7.50;;
58015;SDS011;43809;52.110;20.964;2023-11-19T00:17:19;12.27;;;6.35;;
58015;SDS011;43809;52.110;20.964;2023-11-19T00:19:20;10.82;;;5.78;;
58015;SDS011;43809;52.110;20.964;2023-11-19T00:21:20;10.70;;;5.43;;
58015;SDS011;43809;52.110;20.964;2023-11-19T00:23:21;11.10;;;5.30;;
58015;SDS011;43809;52.110;20.964;2023-11-19T00:25:23;9.18;;;5.00;;
58015;SDS011;43809;52.110;20.964;2023-11-19T00:27:24;9.15;;;4.60;;
58015;SDS011;43809;52.110;20.964;2023-11-19T00:29:25;9.45;;;4.90;;
58015;SDS011;43809;52.110;20.964;2023-11-19T00:31:26;11.50;;;4.85;;
58015;SDS011;43809;52.110;20.964;2023-11-19T00:33:28;12.55;;;5.88;;
58015;SDS011;43809;52.110;20.964;2023-11-19T00:35:29;10.65;;;5.40;;
58015;SDS011;43809;52.110;20.964;2023-11-19T00:37:32;9.88;;;5.07;;
58015;SDS011;43809;52.110;20.964;2023-11-19T00:39:33;10.63;;;5.32;;
58015;SDS011;43809;52.110;20.964;2023-11-19T00:41:33;11.00;;;5.20;;
58015;SDS011;43809;52.110;20.964;2023-11-19T00:43:34;10.90;;;5.90;;
58015;SDS011;43809;52.110;20.964;2023-11-19T00:45:35;9.10;;;4.88;;
58015;SDS011;43809;52.110;20.964;2023-11-19T00:47:36;10.50;;;5.30;;
58015;SDS011;43809;52.110;20.964;2023-11-19T00:49:36;16.00;;;7.45;;
58015;SDS011;43809;52.110;20.964;2023-11-19T00:51:44;17.60;;;8.50;;
58015;SDS011;43809;52.110;20.964;2023-11-19T00:53:46;14.50;;;7.68;;
58015;SDS011;43809;52.110;20.964;2023-11-19T00:55:46;15.75;;;8.65;;
58015;SDS011;43809;52.110;20.964;2023-11-19T00:57:48;25.63;;;12.43;;
58015;SDS011;43809;52.110;20.964;2023-11-19T01:03:16;25.77;;;13.05;;
58015;SDS011;43809;52.110;20.964;2023-11-19T01:05:17;27.02;;;13.05;;
58015;SDS011;43809;52.110;20.964;2023-11-19T01:07:21;27.67;;;13.25;;
58015;SDS011;43809;52.110;20.964;2023-11-19T01:09:37;31.75;;;15.00;;
58015;SDS011;43809;52.110;20.964;2023-11-19T01:11:38;32.33;;;15.80;;
58015;SDS011;43809;52.110;20.964;2023-11-19T01:13:39;31.92;;;14.63;;
58015;SDS011;43809;52.110;20.964;2023-11-19T01:15:40;34.60;;;16.85;;
58015;SDS011;43809;52.110;20.964;2023-11-19T01:17:42;33.50;;;16.38;;
58015;SDS011;43809;52.110;20.964;2023-11-19T01:19:44;42.78;;;20.08;;
58015;SDS011;43809;52.110;20.964;2023-11-19T01:21:44;36.47;;;17.85;;
58015;SDS011;43809;52.110;20.964;2023-11-19T01:23:45;42.25;;;19.73;;
58015;SDS011;43809;52.110;20.964;2023-11-19T01:25:46;39.78;;;18.48;;
58015;SDS011;43809;52.110;20.964;2023-11-19T01:27:48;34.88;;;17.30;;
58015;SDS011;43809;52.110;20.964;2023-11-19T01:29:50;33.67;;;15.80;;
58015;SDS011;43809;52.110;20.964;2023-11-19T01:34:24;33.30;;;15.57;;
58015;SDS011;43809;52.110;20.964;2023-11-19T01:39:04;43.65;;;19.58;;
58015;SDS011;43809;52.110;20.964;2023-11-19T01:41:05;30.70;;;14.98;;
58015;SDS011;43809;52.110;20.964;2023-11-19T01:43:05;28.90;;;13.57;;
58015;SDS011;43809;52.110;20.964;2023-11-19T01:45:06;34.30;;;15.85;;
58015;SDS011;43809;52.110;20.964;2023-11-19T01:47:10;41.53;;;19.35;;
58015;SDS011;43809;52.110;20.964;2023-11-19T01:49:11;39.65;;;18.42;;
58015;SDS011;43809;52.110;20.964;2023-11-19T01:51:14;42.40;;;17.25;;
58015;SDS011;43809;52.110;20.964;2023-11-19T01:53:17;32.17;;;15.50;;
58015;SDS011;43809;52.110;20.964;2023-11-19T01:55:18;45.78;;;21.00;;
58015;SDS011;43809;52.110;20.964;2023-11-19T01:57:21;34.73;;;16.70;;
58015;SDS011;43809;52.110;20.964;2023-11-19T01:59:23;34.30;;;15.77;;
58015;SDS011;43809;52.110;20.964;2023-11-19T02:01:27;45.67;;;19.73;;
58015;SDS011;43809;52.110;20.964;2023-11-19T02:03:28;38.30;;;18.17;;
58015;SDS011;43809;52.110;20.964;2023-11-19T02:05:29;40.73;;;18.50;;
58015;SDS011;43809;52.110;20.964;2023-11-19T02:07:32;40.42;;;18.98;;
58015;SDS011;43809;52.110;20.964;2023-11-19T02:09:33;42.90;;;17.75;;
58015;SDS011;43809;52.110;20.964;2023-11-19T02:11:34;39.75;;;17.42;;
58015;SDS011;43809;52.110;20.964;2023-11-19T02:13:36;39.17;;;17.15;;
58015;SDS011;43809;52.110;20.964;2023-11-19T02:15:37;45.15;;;18.85;;
58015;SDS011;43809;52.110;20.964;2023-11-19T02:17:38;41.72;;;18.48;;
58015;SDS011;43809;52.110;20.964;2023-11-19T02:19:39;38.83;;;17.27;;
58015;SDS011;43809;52.110;20.964;2023-11-19T02:21:40;44.55;;;19.33;;
58015;SDS011;43809;52.110;20.964;2023-11-19T02:23:42;40.95;;;18.45;;
58015;SDS011;43809;52.110;20.964;2023-11-19T02:25:43;39.63;;;16.70;;
58015;SDS011;43809;52.110;20.964;2023-11-19T02:29:48;38.78;;;16.45;;
58015;SDS011;43809;52.110;20.964;2023-11-19T02:31:50;40.85;;;17.50;;
58015;SDS011;43809;52.110;20.964;2023-11-19T02:33:50;47.00;;;20.15;;
58015;SDS011;43809;52.110;20.964;2023-11-19T02:35:52;44.20;;;19.48;;
58015;SDS011;43809;52.110;20.964;2023-11-19T02:37:55;40.67;;;18.80;;
58015;SDS011;43809;52.110;20.964;2023-11-19T02:39:56;40.38;;;17.75;;
58015;SDS011;43809;52.110;20.964;2023-11-19T02:44:26;38.08;;;17.60;;
58015;SDS011;43809;52.110;20.964;2023-11-19T02:46:30;39.35;;;16.70;;
58015;SDS011;43809;52.110;20.964;2023-11-19T02:48:32;43.78;;;19.08;;
58015;SDS011;43809;52.110;20.964;2023-11-19T02:50:32;39.85;;;18.15;;
58015;SDS011;43809;52.110;20.964;2023-11-19T02:52:33;42.92;;;19.08;;
58015;SDS011;43809;52.110;20.964;2023-11-19T02:54:38;34.28;;;16.48;;
58015;SDS011;43809;52.110;20.964;2023-11-19T02:56:45;34.42;;;15.07;;
58015;SDS011;43809;52.110;20.964;2023-11-19T02:58:48;36.33;;;16.63;;
58015;SDS011;43809;52.110;20.964;2023-11-19T03:00:49;32.63;;;16.37;;
58015;SDS011;43809;52.110;20.964;2023-11-19T03:03:02;43.72;;;20.27;;
58015;SDS011;43809;52.110;20.964;2023-11-19T03:05:11;44.70;;;18.33;;
58015;SDS011;43809;52.110;20.964;2023-11-19T03:07:12;39.38;;;16.70;;
58015;SDS011;43809;52.110;20.964;2023-11-19T03:09:14;38.53;;;18.53;;
58015;SDS011;43809;52.110;20.964;2023-11-19T03:11:14;40.95;;;17.40;;
58015;SDS011;43809;52.110;20.964;2023-11-19T03:13:15;39.67;;;17.95;;
58015;SDS011;43809;52.110;20.964;2023-11-19T03:15:17;32.97;;;14.38;;
58015;SDS011;43809;52.110;20.964;2023-11-19T03:17:18;33.05;;;15.57;;
58015;SDS011;43809;52.110;20.964;2023-11-19T03:19:19;32.05;;;14.38;;
58015;SDS011;43809;52.110;20.964;2023-11-19T03:24:00;41.08;;;18.52;;
58015;SDS011;43809;52.110;20.964;2023-11-19T03:26:01;40.72;;;18.80;;
58015;SDS011;43809;52.110;20.964;2023-11-19T03:28:04;37.03;;;17.08;;
58015;SDS011;43809;52.110;20.964;2023-11-19T03:30:05;36.63;;;16.80;;
58015;SDS011;43809;52.110;20.964;2023-11-19T03:32:06;36.35;;;15.80;;
58015;SDS011;43809;52.110;20.964;2023-11-19T03:34:07;39.38;;;18.13;;
58015;SDS011;43809;52.110;20.964;2023-11-19T03:36:08;37.17;;;16.05;;
58015;SDS011;43809;52.110;20.964;2023-11-19T03:38:09;39.65;;;18.02;;
58015;SDS011;43809;52.110;20.964;2023-11-19T03:40:10;48.22;;;19.02;;
58015;SDS011;43809;52.110;20.964;2023-11-19T03:42:11;37.05;;;16.58;;
58015;SDS011;43809;52.110;20.964;2023-11-19T03:44:13;36.33;;;16.27;;
58015;SDS011;43809;52.110;20.964;2023-11-19T03:46:20;36.70;;;16.85;;
58015;SDS011;43809;52.110;20.964;2023-11-19T03:48:21;38.63;;;16.33;;
58015;SDS011;43809;52.110;20.964;2023-11-19T03:50:31;34.03;;;15.95;;
58015;SDS011;43809;52.110;20.964;2023-11-19T03:52:31;37.75;;;17.45;;
58015;SDS011;43809;52.110;20.964;2023-11-19T03:54:32;33.85;;;15.45;;
58015;SDS011;43809;52.110;20.964;2023-11-19T03:56:33;37.65;;;16.80;;
58015;SDS011;43809;52.110;20.964;2023-11-19T03:58:34;38.10;;;16.58;;
58015;SDS011;43809;52.110;20.964;2023-11-19T04:00:35;36.67;;;16.05;;
58015;SDS011;43809;52.110;20.964;2023-11-19T04:02:36;38.67;;;16.15;;
58015;SDS011;43809;52.110;20.964;2023-11-19T04:04:37;40.80;;;17.45;;
58015;SDS011;43809;52.110;20.964;2023-11-19T04:06:39;37.83;;;17.15;;
58015;SDS011;43809;52.110;20.964;2023-11-19T04:08:40;42.65;;;16.95;;
58015;SDS011;43809;52.110;20.964;2023-11-19T04:10:40;43.33;;;18.25;;
58015;SDS011;43809;52.110;20.964;2023-11-19T04:12:41;36.08;;;16.52;;
58015;SDS011;43809;52.110;20.964;2023-11-19T04:14:43;42.92;;;17.40;;
58015;SDS011;43809;52.110;20.964;2023-11-19T04:16:44;43.30;;;17.88;;
58015;SDS011;43809;52.110;20.964;2023-11-19T04:18:45;41.95;;;17.67;;
58015;SDS011;43809;52.110;20.964;2023-11-19T04:20:46;44.22;;;17.52;;
58015;SDS011;43809;52.110;20.964;2023-11-19T04:22:47;38.33;;;15.10;;
58015;SDS011;43809;52.110;20.964;2023-11-19T04:24:48;39.80;;;17.73;;
58015;SDS011;43809;52.110;20.964;2023-11-19T04:26:48;39.83;;;17.55;;
58015;SDS011;43809;52.110;20.964;2023-11-19T04:37:54;48.40;;;19.35;;
58015;SDS011;43809;52.110;20.964;2023-11-19T04:39:57;44.97;;;17.73;;
58015;SDS011;43809;52.110;20.964;2023-11-19T04:41:59;36.42;;;16.98;;
58015;SDS011;43809;52.110;20.964;2023-11-19T04:44:00;41.90;;;17.63;;
58015;SDS011;43809;52.110;20.964;2023-11-19T04:46:03;45.00;;;18.75;;
58015;SDS011;43809;52.110;20.964;2023-11-19T04:48:03;43.97;;;17.70;;
58015;SDS011;43809;52.110;20.964;2023-11-19T04:50:04;41.28;;;18.73;;
58015;SDS011;43809;52.110;20.964;2023-11-19T04:52:05;46.00;;;19.48;;
58015;SDS011;43809;52.110;20.964;2023-11-19T04:54:06;44.70;;;18.67;;
58015;SDS011;43809;52.110;20.964;2023-11-19T04:56:09;43.70;;;18.48;;
58015;SDS011;43809;52.110;20.964;2023-11-19T04:58:10;42.55;;;18.08;;
58015;SDS011;43809;52.110;20.964;2023-11-19T05:00:11;41.70;;;17.52;;
58015;SDS011;43809;52.110;20.964;2023-11-19T05:04:32;43.22;;;19.17;;
58015;SDS011;43809;52.110;20.964;2023-11-19T05:06:33;43.85;;;18.67;;
58015;SDS011;43809;52.110;20.964;2023-11-19T05:08:35;46.80;;;18.87;;
58015;SDS011;43809;52.110;20.964;2023-11-19T05:10:36;38.60;;;17.15;;
58015;SDS011;43809;52.110;20.964;2023-11-19T05:12:37;45.53;;;19.30;;
58015;SDS011;43809;52.110;20.964;2023-11-19T05:14:39;37.40;;;16.55;;
58015;SDS011;43809;52.110;20.964;2023-11-19T05:19:02;46.38;;;19.05;;
58015;SDS011;43809;52.110;20.964;2023-11-19T05:21:04;39.38;;;17.52;;
58015;SDS011;43809;52.110;20.964;2023-11-19T05:23:05;47.00;;;19.33;;
58015;SDS011;43809;52.110;20.964;2023-11-19T05:25:06;42.78;;;17.15;;
58015;SDS011;43809;52.110;20.964;2023-11-19T05:27:07;44.55;;;18.75;;
58015;SDS011;43809;52.110;20.964;2023-11-19T05:31:23;42.95;;;17.77;;
58015;SDS011;43809;52.110;20.964;2023-11-19T05:33:24;43.83;;;17.55;;
58015;SDS011;43809;52.110;20.964;2023-11-19T05:35:24;40.55;;;17.15;;
58015;SDS011;43809;52.110;20.964;2023-11-19T05:37:30;43.40;;;18.33;;
58015;SDS011;43809;52.110;20.964;2023-11-19T05:39:31;40.10;;;18.02;;
58015;SDS011;43809;52.110;20.964;2023-11-19T05:41:32;38.25;;;16.00;;
58015;SDS011;43809;52.110;20.964;2023-11-19T05:43:33;35.25;;;15.18;;
58015;SDS011;43809;52.110;20.964;2023-11-19T05:45:36;44.15;;;17.15;;
58015;SDS011;43809;52.110;20.964;2023-11-19T05:47:36;34.95;;;16.33;;
58015;SDS011;43809;52.110;20.964;2023-11-19T05:49:37;35.20;;;14.35;;
58015;SDS011;43809;52.110;20.964;2023-11-19T05:51:39;37.60;;;15.98;;
58015;SDS011;43809;52.110;20.964;2023-11-19T05:53:40;32.88;;;15.13;;
58015;SDS011;43809;52.110;20.964;2023-11-19T05:55:41;27.83;;;13.07;;
58015;SDS011;43809;52.110;20.964;2023-11-19T05:57:55;20.15;;;10.23;;
58015;SDS011;43809;52.110;20.964;2023-11-19T05:59:55;24.35;;;11.05;;
58015;SDS011;43809;52.110;20.964;2023-11-19T06:04:20;20.70;;;9.82;;
58015;SDS011;43809;52.110;20.964;2023-11-19T06:06:21;23.33;;;10.30;;
58015;SDS011;43809;52.110;20.964;2023-11-19T06:08:22;21.55;;;9.50;;
58015;SDS011;43809;52.110;20.964;2023-11-19T06:10:23;19.50;;;9.75;;
58015;SDS011;43809;52.110;20.964;2023-11-19T06:12:29;20.30;;;9.60;;
58015;SDS011;43809;52.110;20.964;2023-11-19T06:16:39;18.38;;;9.10;;
58015;SDS011;43809;52.110;20.964;2023-11-19T06:18:40;17.88;;;8.90;;
58015;SDS011;43809;52.110;20.964;2023-11-19T06:20:42;19.52;;;9.60;;
58015;SDS011;43809;52.110;20.964;2023-11-19T06:22:42;18.67;;;9.82;;
58015;SDS011;43809;52.110;20.964;2023-11-19T06:24:46;20.33;;;9.82;;
58015;SDS011;43809;52.110;20.964;2023-11-19T06:26:47;17.02;;;9.57;;
58015;SDS011;43809;52.110;20.964;2023-11-19T06:29:05;16.42;;;8.68;;
58015;SDS011;43809;52.110;20.964;2023-11-19T06:31:06;17.17;;;9.27;;
58015;SDS011;43809;52.110;20.964;2023-11-19T06:33:07;15.27;;;8.18;;
58015;SDS011;43809;52.110;20.964;2023-11-19T06:35:08;15.55;;;8.73;;
58015;SDS011;43809;52.110;20.964;2023-11-19T06:37:09;15.57;;;8.95;;
58015;SDS011;43809;52.110;20.964;2023-11-19T06:39:10;15.80;;;8.88;;
58015;SDS011;43809;52.110;20.964;2023-11-19T06:41:11;14.63;;;7.85;;
58015;SDS011;43809;52.110;20.964;2023-11-19T06:43:12;12.65;;;7.50;;
58015;SDS011;43809;52.110;20.964;2023-11-19T06:45:13;16.15;;;9.00;;
58015;SDS011;43809;52.110;20.964;2023-11-19T06:47:13;14.05;;;8.18;;
58015;SDS011;43809;52.110;20.964;2023-11-19T06:49:14;14.65;;;8.90;;
58015;SDS011;43809;52.110;20.964;2023-11-19T06:51:15;13.63;;;8.20;;
58015;SDS011;43809;52.110;20.964;2023-11-19T06:53:16;15.00;;;8.35;;
58015;SDS011;43809;52.110;20.964;2023-11-19T06:55:16;16.35;;;8.43;;
58015;SDS011;43809;52.110;20.964;2023-11-19T06:57:17;14.27;;;7.82;;
58015;SDS011;43809;52.110;20.964;2023-11-19T06:59:18;14.25;;;8.68;;
58015;SDS011;43809;52.110;20.964;2023-11-19T07:03:39;13.98;;;8.07;;
58015;SDS011;43809;52.110;20.964;2023-11-19T07:05:40;14.88;;;8.50;;
58015;SDS011;43809;52.110;20.964;2023-11-19T07:07:41;14.65;;;8.25;;
58015;SDS011;43809;52.110;20.964;2023-11-19T07:09:42;15.20;;;8.75;;
58015;SDS011;43809;52.110;20.964;2023-11-19T07:11:43;14.77;;;8.18;;
58015;SDS011;43809;52.110;20.964;2023-11-19T07:13:46;15.65;;;8.55;;
58015;SDS011;43809;52.110;20.964;2023-11-19T07:15:47;15.85;;;8.40;;
58015;SDS011;43809;52.110;20.964;2023-11-19T07:17:48;16.13;;;9.27;;
58015;SDS011;43809;52.110;20.964;2023-11-19T07:19:49;17.17;;;9.18;;
58015;SDS011;43809;52.110;20.964;2023-11-19T07:21:50;17.83;;;10.05;;
58015;SDS011;43809;52.110;20.964;2023-11-19T07:23:51;18.15;;;9.60;;
58015;SDS011;43809;52.110;20.964;2023-11-19T07:25:52;16.58;;;9.40;;
58015;SDS011;43809;52.110;20.964;2023-11-19T07:27:54;17.47;;;9.10;;
58015;SDS011;43809;52.110;20.964;2023-11-19T07:29:54;16.92;;;8.90;;
58015;SDS011;43809;52.110;20.964;2023-11-19T07:31:55;17.42;;;9.35;;
58015;SDS011;43809;52.110;20.964;2023-11-19T07:36:04;18.58;;;9.93;;
58015;SDS011;43809;52.110;20.964;2023-11-19T07:38:05;19.52;;;10.10;;
58015;SDS011;43809;52.110;20.964;2023-11-19T07:40:06;19.42;;;10.15;;
58015;SDS011;43809;52.110;20.964;2023-11-19T07:42:09;17.40;;;9.73;;
58015;SDS011;43809;52.110;20.964;2023-11-19T07:44:10;18.83;;;10.50;;
58015;SDS011;43809;52.110;20.964;2023-11-19T07:46:18;20.58;;;10.52;;
58015;SDS011;43809;52.110;20.964;2023-11-19T07:48:22;17.25;;;9.63;;
58015;SDS011;43809;52.110;20.964;2023-11-19T07:50:24;19.13;;;10.30;;
58015;SDS011;43809;52.110;20.964;2023-11-19T07:52:25;19.57;;;10.10;;
58015;SDS011;43809;52.110;20.964;2023-11-19T07:54:29;16.48;;;9.48;;
58015;SDS011;43809;52.110;20.964;2023-11-19T07:56:30;16.88;;;9.32;;
58015;SDS011;43809;52.110;20.964;2023-11-19T07:58:32;19.27;;;9.50;;
58015;SDS011;43809;52.110;20.964;2023-11-19T08:00:32;16.75;;;9.85;;
58015;SDS011;43809;52.110;20.964;2023-11-19T08:02:33;20.52;;;10.40;;
58015;SDS011;43809;52.110;20.964;2023-11-19T08:04:34;20.58;;;10.52;;
58015;SDS011;43809;52.110;20.964;2023-11-19T08:06:35;20.15;;;10.05;;
58015;SDS011;43809;52.110;20.964;2023-11-19T08:08:35;21.92;;;10.60;;
58015;SDS011;43809;52.110;20.964;2023-11-19T08:10:38;21.83;;;10.50;;
58015;SDS011;43809;52.110;20.964;2023-11-19T08:12:40;19.00;;;10.40;;
58015;SDS011;43809;52.110;20.964;2023-11-19T08:14:41;18.08;;;10.30;;
58015;SDS011;43809;52.110;20.964;2023-11-19T08:16:42;17.58;;;10.07;;
58015;SDS011;43809;52.110;20.964;2023-11-19T08:18:44;21.67;;;10.93;;
58015;SDS011;43809;52.110;20.964;2023-11-19T08:20:45;19.63;;;9.90;;
58015;SDS011;43809;52.110;20.964;2023-11-19T08:22:46;19.23;;;9.73;;
58015;SDS011;43809;52.110;20.964;2023-11-19T08:24:46;18.40;;;9.65;;
58015;SDS011;43809;52.110;20.964;2023-11-19T08:26:47;20.02;;;10.68;;
58015;SDS011;43809;52.110;20.964;2023-11-19T08:28:50;19.30;;;10.27;;
58015;SDS011;43809;52.110;20.964;2023-11-19T08:30:52;19.80;;;10.30;;
58015;SDS011;43809;52.110;20.964;2023-11-19T08:32:53;18.77;;;10.23;;
58015;SDS011;43809;52.110;20.964;2023-11-19T08:34:54;17.15;;;9.50;;
58015;SDS011;43809;52.110;20.964;2023-11-19T08:36:54;16.88;;;9.48;;
58015;SDS011;43809;52.110;20.964;2023-11-19T08:38:56;18.63;;;10.05;;
58015;SDS011;43809;52.110;20.964;2023-11-19T08:40:56;20.15;;;10.27;;
58015;SDS011;43809;52.110;20.964;2023-11-19T08:43:01;18.65;;;10.00;;
58015;SDS011;43809;52.110;20.964;2023-11-19T08:45:02;17.83;;;9.40;;
58015;SDS011;43809;52.110;20.964;2023-11-19T08:47:03;20.52;;;9.82;;
58015;SDS011;43809;52.110;20.964;2023-11-19T08:49:06;16.40;;;9.18;;
58015;SDS011;43809;52.110;20.964;2023-11-19T08:51:09;19.63;;;10.77;;
58015;SDS011;43809;52.110;20.964;2023-11-19T08:53:09;19.05;;;9.57;;
58015;SDS011;43809;52.110;20.964;2023-11-19T08:55:10;17.27;;;9.35;;
58015;SDS011;43809;52.110;20.964;2023-11-19T08:57:12;17.40;;;9.60;;
58015;SDS011;43809;52.110;20.964;2023-11-19T08:59:13;17.25;;;9.00;;
58015;SDS011;43809;52.110;20.964;2023-11-19T09:01:13;15.77;;;9.05;;
58015;SDS011;43809;52.110;20.964;2023-11-19T09:03:14;17.30;;;8.95;;
58015;SDS011;43809;52.110;20.964;2023-11-19T09:05:15;16.60;;;9.50;;
58015;SDS011;43809;52.110;20.964;2023-11-19T09:07:16;16.60;;;9.32;;
58015;SDS011;43809;52.110;20.964;2023-11-19T09:09:16;17.98;;;9.55;;
58015;SDS011;43809;52.110;20.964;2023-11-19T09:11:17;15.65;;;9.02;;
58015;SDS011;43809;52.110;20.964;2023-11-19T09:13:18;16.90;;;9.65;;
58015;SDS011;43809;52.110;20.964;2023-11-19T09:15:19;19.23;;;9.23;;
58015;SDS011;43809;52.110;20.964;2023-11-19T09:17:19;20.58;;;11.57;;
58015;SDS011;43809;52.110;20.964;2023-11-19T09:19:21;18.10;;;10.60;;
58015;SDS011;43809;52.110;20.964;2023-11-19T09:21:22;18.10;;;9.75;;
58015;SDS011;43809;52.110;20.964;2023-11-19T09:23:23;18.30;;;9.40;;
58015;SDS011;43809;52.110;20.964;2023-11-19T09:25:25;17.00;;;8.90;;
58015;SDS011;43809;52.110;20.964;2023-11-19T09:27:29;18.40;;;9.45;;
58015;SDS011;43809;52.110;20.964;2023-11-19T09:29:33;18.42;;;9.75;;
58015;SDS011;43809;52.110;20.964;2023-11-19T09:31:40;20.52;;;10.13;;
58015;SDS011;43809;52.110;20.964;2023-11-19T09:33:41;17.75;;;9.60;;
58015;SDS011;43809;52.110;20.964;2023-11-19T09:35:41;18.23;;;10.05;;
58015;SDS011;43809;52.110;20.964;2023-11-19T09:37:43;20.40;;;10.40;;
58015;SDS011;43809;52.110;20.964;2023-11-19T09:39:43;17.70;;;9.48;;
58015;SDS011;43809;52.110;20.964;2023-11-19T09:41:45;17.77;;;9.35;;
58015;SDS011;43809;52.110;20.964;2023-11-19T09:43:45;18.58;;;10.25;;
58015;SDS011;43809;52.110;20.964;2023-11-19T09:47:47;21.15;;;10.30;;
58015;SDS011;43809;52.110;20.964;2023-11-19T09:49:48;18.02;;;10.38;;
58015;SDS011;43809;52.110;20.964;2023-11-19T09:51:49;18.37;;;9.83;;
58015;SDS011;43809;52.110;20.964;2023-11-19T09:53:51;19.35;;;10.25;;
58015;SDS011;43809;52.110;20.964;2023-11-19T09:55:52;20.05;;;10.50;;
58015;SDS011;43809;52.110;20.964;2023-11-19T09:57:54;18.53;;;10.50;;
58015;SDS011;43809;52.110;20.964;2023-11-19T09:59:55;17.88;;;10.02;;
58015;SDS011;43809;52.110;20.964;2023-11-19T10:01:56;21.38;;;11.45;;
58015;SDS011;43809;52.110;20.964;2023-11-19T10:03:57;22.08;;;10.77;;
58015;SDS011;43809;52.110;20.964;2023-11-19T10:05:58;22.05;;;10.95;;
58015;SDS011;43809;52.110;20.964;2023-11-19T10:08:01;21.40;;;11.27;;
58015;SDS011;43809;52.110;20.964;2023-11-19T10:10:02;20.83;;;11.37;;
58015;SDS011;43809;52.110;20.964;2023-11-19T10:12:04;23.83;;;12.50;;
58015;SDS011;43809;52.110;20.964;2023-11-19T10:14:05;21.33;;;11.82;;
58015;SDS011;43809;52.110;20.964;2023-11-19T10:16:10;21.50;;;11.45;;
58015;SDS011;43809;52.110;20.964;2023-11-19T10:18:13;21.48;;;11.05;;
58015;SDS011;43809;52.110;20.964;2023-11-19T10:20:14;20.88;;;11.35;;
58015;SDS011;43809;52.110;20.964;2023-11-19T10:22:15;20.52;;;11.63;;
58015;SDS011;43809;52.110;20.964;2023-11-19T10:24:19;20.30;;;10.98;;
58015;SDS011;43809;52.110;20.964;2023-11-19T10:26:31;21.27;;;11.48;;
58015;SDS011;43809;52.110;20.964;2023-11-19T10:28:40;19.85;;;11.15;;
58015;SDS011;43809;52.110;20.964;2023-11-19T10:30:46;21.42;;;11.77;;
58015;SDS011;43809;52.110;20.964;2023-11-19T10:33:07;26.15;;;13.23;;
58015;SDS011;43809;52.110;20.964;2023-11-19T10:35:08;23.27;;;11.88;;
58015;SDS011;43809;52.110;20.964;2023-11-19T10:37:28;23.70;;;11.80;;
58015;SDS011;43809;52.110;20.964;2023-11-19T10:39:51;20.38;;;11.35;;
58015;SDS011;43809;52.110;20.964;2023-11-19T10:41:54;22.35;;;11.93;;
58015;SDS011;43809;52.110;20.964;2023-11-19T10:43:55;21.85;;;11.93;;
58015;SDS011;43809;52.110;20.964;2023-11-19T10:46:09;20.73;;;11.65;;
58015;SDS011;43809;52.110;20.964;2023-11-19T10:48:10;20.95;;;11.57;;
58015;SDS011;43809;52.110;20.964;2023-11-19T10:50:13;23.35;;;11.77;;
58015;SDS011;43809;52.110;20.964;2023-11-19T10:52:15;21.40;;;11.80;;
58015;SDS011;43809;52.110;20.964;2023-11-19T10:54:18;22.27;;;11.77;;
58015;SDS011;43809;52.110;20.964;2023-11-19T10:56:25;24.33;;;11.98;;
58015;SDS011;43809;52.110;20.964;2023-11-19T10:58:29;22.10;;;11.98;;
58015;SDS011;43809;52.110;20.964;2023-11-19T11:00:47;23.58;;;12.45;;
58015;SDS011;43809;52.110;20.964;2023-11-19T11:02:49;21.05;;;11.95;;
58015;SDS011;43809;52.110;20.964;2023-11-19T11:04:51;25.92;;;13.63;;
58015;SDS011;43809;52.110;20.964;2023-11-19T11:06:53;23.75;;;13.02;;
58015;SDS011;43809;52.110;20.964;2023-11-19T11:08:54;23.20;;;12.55;;
58015;SDS011;43809;52.110;20.964;2023-11-19T11:10:56;23.33;;;13.25;;
58015;SDS011;43809;52.110;20.964;2023-11-19T11:12:58;23.65;;;12.02;;
58015;SDS011;43809;52.110;20.964;2023-11-19T11:14:59;21.33;;;11.40;;
58015;SDS011;43809;52.110;20.964;2023-11-19T11:17:01;22.33;;;11.25;;
58015;SDS011;43809;52.110;20.964;2023-11-19T11:21:11;23.38;;;12.15;;
58015;SDS011;43809;52.110;20.964;2023-11-19T11:25:17;25.63;;;12.50;;
58015;SDS011;43809;52.110;20.964;2023-11-19T11:29:46;26.80;;;13.45;;
58015;SDS011;43809;52.110;20.964;2023-11-19T11:36:27;23.77;;;11.95;;
58015;SDS011;43809;52.110;20.964;2023-11-19T11:38:31;23.65;;;12.32;;
58015;SDS011;43809;52.110;20.964;2023-11-19T11:40:34;26.48;;;12.90;;
58015;SDS011;43809;52.110;20.964;2023-11-19T11:42:36;25.70;;;13.43;;
58015;SDS011;43809;52.110;20.964;2023-11-19T11:46:57;24.38;;;13.07;;
58015;SDS011;43809;52.110;20.964;2023-11-19T11:49:01;24.58;;;13.07;;
58015;SDS011;43809;52.110;20.964;2023-11-19T11:51:02;25.30;;;13.50;;
58015;SDS011;43809;52.110;20.964;2023-11-19T11:59:19;26.80;;;13.23;;
58015;SDS011;43809;52.110;20.964;2023-11-19T12:01:21;27.45;;;13.60;;
58015;SDS011;43809;52.110;20.964;2023-11-19T12:03:22;23.83;;;13.07;;
58015;SDS011;43809;52.110;20.964;2023-11-19T12:05:23;22.65;;;11.38;;
58015;SDS011;43809;52.110;20.964;2023-11-19T12:07:24;23.48;;;12.32;;
58015;SDS011;43809;52.110;20.964;2023-11-19T12:09:25;22.40;;;12.13;;
58015;SDS011;43809;52.110;20.964;2023-11-19T12:11:28;23.88;;;12.95;;
58015;SDS011;43809;52.110;20.964;2023-11-19T12:13:52;24.65;;;12.80;;
58015;SDS011;43809;52.110;20.964;2023-11-19T12:17:58;22.75;;;12.52;;
58015;SDS011;43809;52.110;20.964;2023-11-19T12:20:02;25.40;;;12.82;;
58015;SDS011;43809;52.110;20.964;2023-11-19T12:22:07;23.98;;;12.80;;
58015;SDS011;43809;52.110;20.964;2023-11-19T12:24:10;24.98;;;12.32;;
58015;SDS011;43809;52.110;20.964;2023-11-19T12:28:42;23.17;;;12.35;;
58015;SDS011;43809;52.110;20.964;2023-11-19T12:31:07;25.75;;;13.45;;
58015;SDS011;43809;52.110;20.964;2023-11-19T12:33:09;24.73;;;12.88;;
58015;SDS011;43809;52.110;20.964;2023-11-19T12:35:10;23.48;;;12.63;;
58015;SDS011;43809;52.110;20.964;2023-11-19T12:37:11;24.35;;;13.00;;
58015;SDS011;43809;52.110;20.964;2023-11-19T12:39:12;25.20;;;13.15;;
58015;SDS011;43809;52.110;20.964;2023-11-19T12:41:13;28.45;;;14.30;;
58015;SDS011;43809;52.110;20.964;2023-11-19T12:43:21;27.10;;;13.80;;
58015;SDS011;43809;52.110;20.964;2023-11-19T12:45:23;26.90;;;13.45;;
58015;SDS011;43809;52.110;20.964;2023-11-19T12:47:26;25.67;;;13.25;;
58015;SDS011;43809;52.110;20.964;2023-11-19T12:49:27;29.23;;;13.93;;
58015;SDS011;43809;52.110;20.964;2023-11-19T12:51:31;23.90;;;13.05;;
58015;SDS011;43809;52.110;20.964;2023-11-19T12:53:46;24.70;;;13.45;;
58015;SDS011;43809;52.110;20.964;2023-11-19T12:55:47;24.83;;;12.68;;